sensor_id;sensor_type;location;lat;lon;timestamp;pressure;altitude;pressure_sealevel;temperature;humidity
36726;BME280;44936;52.086;5.150;2023-04-25T00:00:15;101375.34;;;6.73;100.00
36726;BME280;44936;52.086;5.150;2023-04-25T00:02:42;101383.91;;;6.69;100.00
36726;BME280;44936;52.086;5.150;2023-04-25T00:05:07;101401.31;;;6.70;100.00
36726;BME280;44936;52.086;5.150;2023-04-25T00:07:33;101425.41;;;6.61;100.00
36726;BME280;44936;52.086;5.150;2023-04-25T00:10:00;101480.84;;;6.56;100.00
36726;BME280;44936;52.086;5.150;2023-04-25T00:12:25;101473.78;;;6.23;100.00
36726;BME280;44936;52.086;5.150;2023-04-25T00:14:53;101584.06;;;6.50;100.00
36726;BME280;44936;52.086;5.150;2023-04-25T00:17:18;101623.31;;;6.55;100.00
36726;BME280;44936;52.086;5.150;2023-04-25T00:19:44;101636.94;;;6.46;100.00
36726;BME280;44936;52.086;5.150;2023-04-25T00:22:11;101642.84;;;6.41;100.00
36726;BME280;44936;52.086;5.150;2023-04-25T00:24:37;101639.38;;;6.42;100.00
36726;BME280;44936;52.086;5.150;2023-04-25T00:27:02;101661.66;;;6.32;100.00
36726;BME280;44936;52.086;5.150;2023-04-25T00:29:28;101649.19;;;6.23;100.00
36726;BME280;44936;52.086;5.150;2023-04-25T00:31:53;101663.69;;;6.41;100.00
36726;BME280;44936;52.086;5.150;2023-04-25T00:34:19;101624.19;;;6.29;100.00
36726;BME280;44936;52.086;5.150;2023-04-25T00:36:44;101582.81;;;6.11;100.00
36726;BME280;44936;52.086;5.150;2023-04-25T00:39:10;101564.44;;;6.08;100.00
36726;BME280;44936;52.086;5.150;2023-04-25T00:41:35;101577.44;;;6.06;100.00
36726;BME280;44936;52.086;5.150;2023-04-25T00:44:01;101591.88;;;6.23;100.00
36726;BME280;44936;52.086;5.150;2023-04-25T00:46:27;101593.53;;;6.20;100.00
36726;BME280;44936;52.086;5.150;2023-04-25T00:48:52;101559.72;;;6.21;100.00
36726;BME280;44936;52.086;5.150;2023-04-25T00:51:20;101549.88;;;6.13;100.00
36726;BME280;44936;52.086;5.150;2023-04-25T00:53:46;101528.16;;;6.12;100.00
36726;BME280;44936;52.086;5.150;2023-04-25T00:56:13;101514.97;;;6.08;100.00
36726;BME280;44936;52.086;5.150;2023-04-25T00:58:40;101501.91;;;6.06;100.00
36726;BME280;44936;52.086;5.150;2023-04-25T01:01:06;101484.34;;;6.01;100.00
36726;BME280;44936;52.086;5.150;2023-04-25T01:03:33;101474.00;;;6.02;100.00
36726;BME280;44936;52.086;5.150;2023-04-25T01:06:01;101473.94;;;6.01;100.00
36726;BME280;44936;52.086;5.150;2023-04-25T01:08:27;101443.16;;;5.89;100.00
36726;BME280;44936;52.086;5.150;2023-04-25T01:10:52;101459.59;;;5.86;100.00
36726;BME280;44936;52.086;5.150;2023-04-25T01:13:18;101450.28;;;5.93;100.00
36726;BME280;44936;52.086;5.150;2023-04-25T01:15:43;101437.09;;;5.88;100.00
36726;BME280;44936;52.086;5.150;2023-04-25T01:18:09;101436.06;;;5.83;100.00
36726;BME280;44936;52.086;5.150;2023-04-25T01:20:37;101434.34;;;5.84;100.00
36726;BME280;44936;52.086;5.150;2023-04-25T01:23:02;101410.63;;;5.75;100.00
36726;BME280;44936;52.086;5.150;2023-04-25T01:25:29;101409.00;;;5.78;100.00
36726;BME280;44936;52.086;5.150;2023-04-25T01:27:55;101402.75;;;5.73;100.00
36726;BME280;44936;52.086;5.150;2023-04-25T01:30:21;101400.91;;;5.69;100.00
36726;BME280;44936;52.086;5.150;2023-04-25T01:32:47;101374.19;;;5.48;100.00
36726;BME280;44936;52.086;5.150;2023-04-25T01:35:13;101407.03;;;5.71;100.00
36726;BME280;44936;52.086;5.150;2023-04-25T01:37:42;101375.00;;;5.47;100.00
36726;BME280;44936;52.086;5.150;2023-04-25T01:40:09;101406.91;;;5.66;100.00
36726;BME280;44936;52.086;5.150;2023-04-25T01:42:38;101385.63;;;5.53;100.00
36726;BME280;44936;52.086;5.150;2023-04-25T01:45:06;101403.88;;;5.54;100.00
36726;BME280;44936;52.086;5.150;2023-04-25T01:47:31;101405.72;;;5.57;100.00
36726;BME280;44936;52.086;5.150;2023-04-25T01:49:57;101396.72;;;5.47;100.00
36726;BME280;44936;52.086;5.150;2023-04-25T01:52:22;101412.63;;;5.56;100.00
36726;BME280;44936;52.086;5.150;2023-04-25T01:54:47;101399.22;;;5.44;100.00
36726;BME280;44936;52.086;5.150;2023-04-25T01:57:17;101409.88;;;5.52;100.00
36726;BME280;44936;52.086;5.150;2023-04-25T01:59:43;101394.50;;;5.32;100.00
36726;BME280;44936;52.086;5.150;2023-04-25T02:02:08;101417.69;;;5.52;100.00
36726;BME280;44936;52.086;5.150;2023-04-25T02:04:33;101413.13;;;5.45;100.00
36726;BME280;44936;52.086;5.150;2023-04-25T02:06:59;101416.63;;;5.47;100.00
36726;BME280;44936;52.086;5.150;2023-04-25T02:09:24;101411.69;;;5.54;100.00
36726;BME280;44936;52.086;5.150;2023-04-25T02:11:50;101409.00;;;5.51;100.00
36726;BME280;44936;52.086;5.150;2023-04-25T02:14:15;101410.25;;;5.64;100.00
36726;BME280;44936;52.086;5.150;2023-04-25T02:16:40;101416.31;;;5.63;100.00
36726;BME280;44936;52.086;5.150;2023-04-25T02:19:08;101405.81;;;5.60;100.00
36726;BME280;44936;52.086;5.150;2023-04-25T02:21:35;101417.19;;;5.63;100.00
36726;BME280;44936;52.086;5.150;2023-04-25T02:24:01;101415.44;;;5.62;100.00
36726;BME280;44936;52.086;5.150;2023-04-25T02:26:26;101415.47;;;5.64;100.00
36726;BME280;44936;52.086;5.150;2023-04-25T02:28:52;101419.78;;;5.63;100.00
36726;BME280;44936;52.086;5.150;2023-04-25T02:31:17;101419.84;;;5.65;100.00
36726;BME280;44936;52.086;5.150;2023-04-25T02:33:43;101409.25;;;5.59;100.00
36726;BME280;44936;52.086;5.150;2023-04-25T02:36:08;101388.09;;;5.48;100.00
36726;BME280;44936;52.086;5.150;2023-04-25T02:38:34;101415.75;;;5.73;100.00
36726;BME280;44936;52.086;5.150;2023-04-25T02:40:59;101425.47;;;5.77;100.00
36726;BME280;44936;52.086;5.150;2023-04-25T02:43:25;101424.63;;;5.78;100.00
36726;BME280;44936;52.086;5.150;2023-04-25T02:45:50;101411.50;;;5.75;100.00
36726;BME280;44936;52.086;5.150;2023-04-25T02:48:16;101402.75;;;5.73;100.00
36726;BME280;44936;52.086;5.150;2023-04-25T02:50:41;101411.84;;;5.86;100.00
36726;BME280;44936;52.086;5.150;2023-04-25T02:53:06;101415.94;;;5.78;100.00
36726;BME280;44936;52.086;5.150;2023-04-25T02:55:32;101424.88;;;5.86;100.00
36726;BME280;44936;52.086;5.150;2023-04-25T02:57:57;101435.34;;;5.89;100.00
36726;BME280;44936;52.086;5.150;2023-04-25T03:00:22;101440.47;;;5.86;100.00
36726;BME280;44936;52.086;5.150;2023-04-25T03:02:48;101427.47;;;5.86;100.00
36726;BME280;44936;52.086;5.150;2023-04-25T03:05:13;101445.25;;;5.99;100.00
36726;BME280;44936;52.086;5.150;2023-04-25T03:07:39;101444.56;;;6.05;100.00
36726;BME280;44936;52.086;5.150;2023-04-25T03:10:06;101435.84;;;6.03;100.00
36726;BME280;44936;52.086;5.150;2023-04-25T03:12:32;101406.78;;;5.90;100.00
36726;BME280;44936;52.086;5.150;2023-04-25T03:14:57;101434.34;;;6.11;100.00
36726;BME280;44936;52.086;5.150;2023-04-25T03:17:22;101441.69;;;6.24;100.00
36726;BME280;44936;52.086;5.150;2023-04-25T03:19:47;101443.38;;;6.22;100.00
36726;BME280;44936;52.086;5.150;2023-04-25T03:22:13;101464.53;;;6.33;100.00
36726;BME280;44936;52.086;5.150;2023-04-25T03:24:38;101454.19;;;6.07;100.00
36726;BME280;44936;52.086;5.150;2023-04-25T03:27:04;101496.78;;;6.09;100.00
36726;BME280;44936;52.086;5.150;2023-04-25T03:29:29;101518.28;;;6.02;100.00
36726;BME280;44936;52.086;5.150;2023-04-25T03:31:54;101567.13;;;5.84;100.00
36726;BME280;44936;52.086;5.150;2023-04-25T03:34:20;101623.75;;;5.65;100.00
36726;BME280;44936;52.086;5.150;2023-04-25T03:36:46;101677.50;;;5.65;100.00
36726;BME280;44936;52.086;5.150;2023-04-25T03:39:12;101724.53;;;5.69;100.00
36726;BME280;44936;52.086;5.150;2023-04-25T03:41:37;101715.03;;;5.72;100.00
36726;BME280;44936;52.086;5.150;2023-04-25T03:44:03;101709.41;;;5.83;100.00
36726;BME280;44936;52.086;5.150;2023-04-25T03:46:28;101686.78;;;5.82;100.00
36726;BME280;44936;52.086;5.150;2023-04-25T03:48:53;101675.94;;;5.92;100.00
36726;BME280;44936;52.086;5.150;2023-04-25T03:51:19;101660.34;;;5.94;100.00
36726;BME280;44936;52.086;5.150;2023-04-25T03:53:44;101636.03;;;5.93;100.00
36726;BME280;44936;52.086;5.150;2023-04-25T03:56:10;101621.25;;;5.92;100.00
36726;BME280;44936;52.086;5.150;2023-04-25T03:58:35;101624.09;;;6.00;100.00
36726;BME280;44936;52.086;5.150;2023-04-25T04:01:00;101618.97;;;6.02;100.00
36726;BME280;44936;52.086;5.150;2023-04-25T04:03:28;101600.56;;;5.97;100.00
36726;BME280;44936;52.086;5.150;2023-04-25T04:05:53;101576.03;;;5.90;100.00
36726;BME280;44936;52.086;5.150;2023-04-25T04:08:19;101592.91;;;6.02;100.00
36726;BME280;44936;52.086;5.150;2023-04-25T04:10:45;101572.66;;;5.93;100.00
36726;BME280;44936;52.086;5.150;2023-04-25T04:13:10;101531.16;;;5.74;100.00
36726;BME280;44936;52.086;5.150;2023-04-25T04:15:37;101538.34;;;5.81;100.00
36726;BME280;44936;52.086;5.150;2023-04-25T04:18:02;101500.84;;;5.49;100.00
36726;BME280;44936;52.086;5.150;2023-04-25T04:20:29;101555.66;;;5.79;100.00
36726;BME280;44936;52.086;5.150;2023-04-25T04:22:55;101551.00;;;5.70;100.00
36726;BME280;44936;52.086;5.150;2023-04-25T04:25:20;101568.41;;;5.71;100.00
36726;BME280;44936;52.086;5.150;2023-04-25T04:27:46;101568.75;;;5.56;100.00
36726;BME280;44936;52.086;5.150;2023-04-25T04:30:12;101574.13;;;5.61;100.00
36726;BME280;44936;52.086;5.150;2023-04-25T04:32:37;101594.00;;;5.59;100.00
36726;BME280;44936;52.086;5.150;2023-04-25T04:35:04;101574.41;;;5.45;100.00
36726;BME280;44936;52.086;5.150;2023-04-25T04:37:31;101547.75;;;5.26;100.00
36726;BME280;44936;52.086;5.150;2023-04-25T04:39:57;101581.34;;;5.44;100.00
36726;BME280;44936;52.086;5.150;2023-04-25T04:42:23;101602.75;;;5.61;100.00
36726;BME280;44936;52.086;5.150;2023-04-25T04:44:49;101607.22;;;5.65;100.00
36726;BME280;44936;52.086;5.150;2023-04-25T04:47:15;101612.50;;;5.66;100.00
36726;BME280;44936;52.086;5.150;2023-04-25T04:49:40;101604.00;;;5.72;100.00
36726;BME280;44936;52.086;5.150;2023-04-25T04:52:05;101601.56;;;5.77;100.00
36726;BME280;44936;52.086;5.150;2023-04-25T04:54:31;101604.28;;;5.80;100.00
36726;BME280;44936;52.086;5.150;2023-04-25T04:56:56;101610.16;;;5.74;100.00
36726;BME280;44936;52.086;5.150;2023-04-25T04:59:22;101616.25;;;5.75;100.00
36726;BME280;44936;52.086;5.150;2023-04-25T05:01:47;101625.16;;;5.81;100.00
36726;BME280;44936;52.086;5.150;2023-04-25T05:04:12;101649.38;;;5.79;100.00
36726;BME280;44936;52.086;5.150;2023-04-25T05:06:38;101663.44;;;5.84;100.00
36726;BME280;44936;52.086;5.150;2023-04-25T05:09:03;101676.00;;;5.72;100.00
36726;BME280;44936;52.086;5.150;2023-04-25T05:11:29;101715.38;;;5.81;100.00
36726;BME280;44936;52.086;5.150;2023-04-25T05:13:54;101736.00;;;5.75;100.00
36726;BME280;44936;52.086;5.150;2023-04-25T05:16:20;101750.84;;;5.77;100.00
36726;BME280;44936;52.086;5.150;2023-04-25T05:18:46;101781.72;;;5.90;100.00
36726;BME280;44936;52.086;5.150;2023-04-25T05:21:12;101806.78;;;5.88;100.00
36726;BME280;44936;52.086;5.150;2023-04-25T05:23:37;101820.13;;;5.96;100.00
36726;BME280;44936;52.086;5.150;2023-04-25T05:26:03;101821.25;;;6.03;100.00
36726;BME280;44936;52.086;5.150;2023-04-25T05:28:28;101801.16;;;6.00;100.00
36726;BME280;44936;52.086;5.150;2023-04-25T05:30:53;101813.88;;;6.15;100.00
36726;BME280;44936;52.086;5.150;2023-04-25T05:33:19;101815.03;;;6.23;100.00
36726;BME280;44936;52.086;5.150;2023-04-25T05:35:44;101800.31;;;6.23;100.00
36726;BME280;44936;52.086;5.150;2023-04-25T05:38:10;101804.63;;;6.23;100.00
36726;BME280;44936;52.086;5.150;2023-04-25T05:40:36;101815.41;;;6.34;100.00
36726;BME280;44936;52.086;5.150;2023-04-25T05:43:01;101824.59;;;6.46;100.00
36726;BME280;44936;52.086;5.150;2023-04-25T05:45:27;101816.72;;;6.45;100.00
36726;BME280;44936;52.086;5.150;2023-04-25T05:47:52;101821.41;;;6.55;100.00
36726;BME280;44936;52.086;5.150;2023-04-25T05:50:17;101818.94;;;6.60;100.00
36726;BME280;44936;52.086;5.150;2023-04-25T05:52:43;101828.53;;;6.61;100.00
36726;BME280;44936;52.086;5.150;2023-04-25T05:55:08;101836.31;;;6.59;100.00
36726;BME280;44936;52.086;5.150;2023-04-25T05:57:34;101838.06;;;6.60;100.00
36726;BME280;44936;52.086;5.150;2023-04-25T06:00:00;101848.88;;;6.71;100.00
36726;BME280;44936;52.086;5.150;2023-04-25T06:02:25;101830.22;;;6.59;100.00
36726;BME280;44936;52.086;5.150;2023-04-25T06:04:51;101848.88;;;6.71;100.00
36726;BME280;44936;52.086;5.150;2023-04-25T06:07:17;101863.81;;;6.75;100.00
36726;BME280;44936;52.086;5.150;2023-04-25T06:09:43;101881.53;;;6.85;100.00
36726;BME280;44936;52.086;5.150;2023-04-25T06:12:09;101880.75;;;6.88;100.00
36726;BME280;44936;52.086;5.150;2023-04-25T06:14:35;101886.22;;;6.95;100.00
36726;BME280;44936;52.086;5.150;2023-04-25T06:17:00;101887.03;;;6.93;100.00
36726;BME280;44936;52.086;5.150;2023-04-25T06:19:34;101906.84;;;7.13;100.00
36726;BME280;44936;52.086;5.150;2023-04-25T06:22:01;101902.72;;;7.20;100.00
36726;BME280;44936;52.086;5.150;2023-04-25T06:24:26;101895.31;;;7.06;100.00
36726;BME280;44936;52.086;5.150;2023-04-25T06:26:52;101909.97;;;7.03;100.00
36726;BME280;44936;52.086;5.150;2023-04-25T06:29:18;101935.19;;;7.02;100.00
36726;BME280;44936;52.086;5.150;2023-04-25T06:31:43;101933.38;;;7.00;100.00
36726;BME280;44936;52.086;5.150;2023-04-25T06:34:08;101937.97;;;6.83;100.00
36726;BME280;44936;52.086;5.150;2023-04-25T06:36:34;101949.53;;;6.90;100.00
36726;BME280;44936;52.086;5.150;2023-04-25T06:38:59;101924.34;;;6.66;100.00
36726;BME280;44936;52.086;5.150;2023-04-25T06:41:24;101940.81;;;6.65;100.00
36726;BME280;44936;52.086;5.150;2023-04-25T06:43:50;101949.28;;;6.60;100.00
36726;BME280;44936;52.086;5.150;2023-04-25T06:46:15;101965.66;;;6.56;100.00
36726;BME280;44936;52.086;5.150;2023-04-25T06:48:41;101968.66;;;6.44;100.00
36726;BME280;44936;52.086;5.150;2023-04-25T06:51:06;101974.97;;;6.49;100.00
36726;BME280;44936;52.086;5.150;2023-04-25T06:53:31;101988.88;;;6.72;100.00
36726;BME280;44936;52.086;5.150;2023-04-25T06:55:57;101982.53;;;6.89;100.00
36726;BME280;44936;52.086;5.150;2023-04-25T06:58:22;101974.28;;;7.26;100.00
36726;BME280;44936;52.086;5.150;2023-04-25T07:00:47;101986.56;;;7.54;100.00
36726;BME280;44936;52.086;5.150;2023-04-25T07:03:13;101994.16;;;7.74;100.00
36726;BME280;44936;52.086;5.150;2023-04-25T07:05:38;102004.09;;;7.85;100.00
36726;BME280;44936;52.086;5.150;2023-04-25T07:08:04;102004.53;;;7.98;100.00
36726;BME280;44936;52.086;5.150;2023-04-25T07:10:29;101988.03;;;8.00;100.00
36726;BME280;44936;52.086;5.150;2023-04-25T07:12:55;102021.06;;;8.25;100.00
36726;BME280;44936;52.086;5.150;2023-04-25T07:15:20;102016.47;;;8.45;100.00
36726;BME280;44936;52.086;5.150;2023-04-25T07:17:45;102014.34;;;8.33;100.00
36726;BME280;44936;52.086;5.150;2023-04-25T07:20:12;102026.09;;;8.46;100.00
36726;BME280;44936;52.086;5.150;2023-04-25T07:22:38;102016.97;;;8.33;100.00
36726;BME280;44936;52.086;5.150;2023-04-25T07:25:04;102033.16;;;8.48;100.00
36726;BME280;44936;52.086;5.150;2023-04-25T07:27:30;102030.31;;;8.41;100.00
36726;BME280;44936;52.086;5.150;2023-04-25T07:29:56;102043.19;;;8.35;100.00
36726;BME280;44936;52.086;5.150;2023-04-25T07:32:21;102039.78;;;8.12;100.00
36726;BME280;44936;52.086;5.150;2023-04-25T07:34:46;102047.41;;;8.04;100.00
36726;BME280;44936;52.086;5.150;2023-04-25T07:37:12;102054.56;;;7.84;100.00
36726;BME280;44936;52.086;5.150;2023-04-25T07:39:39;102058.72;;;7.78;100.00
36726;BME280;44936;52.086;5.150;2023-04-25T07:42:04;102057.31;;;7.62;100.00
36726;BME280;44936;52.086;5.150;2023-04-25T07:44:33;102074.53;;;7.82;100.00
36726;BME280;44936;52.086;5.150;2023-04-25T07:47:04;102076.22;;;7.80;100.00
36726;BME280;44936;52.086;5.150;2023-04-25T07:49:29;102084.72;;;8.00;100.00
36726;BME280;44936;52.086;5.150;2023-04-25T07:51:55;102087.53;;;8.06;100.00
36726;BME280;44936;52.086;5.150;2023-04-25T07:54:20;102085.00;;;8.09;100.00
36726;BME280;44936;52.086;5.150;2023-04-25T07:56:45;102043.25;;;8.11;100.00
36726;BME280;44936;52.086;5.150;2023-04-25T07:59:10;102075.28;;;8.31;100.00
36726;BME280;44936;52.086;5.150;2023-04-25T08:01:36;102089.28;;;8.33;100.00
36726;BME280;44936;52.086;5.150;2023-04-25T08:04:02;102080.59;;;8.34;100.00
36726;BME280;44936;52.086;5.150;2023-04-25T08:06:27;102097.13;;;8.33;100.00
36726;BME280;44936;52.086;5.150;2023-04-25T08:08:52;102107.22;;;8.22;100.00
36726;BME280;44936;52.086;5.150;2023-04-25T08:11:18;102076.28;;;8.09;100.00
36726;BME280;44936;52.086;5.150;2023-04-25T08:13:43;102064.03;;;7.81;100.00
36726;BME280;44936;52.086;5.150;2023-04-25T08:16:08;102086.75;;;7.83;100.00
36726;BME280;44936;52.086;5.150;2023-04-25T08:18:34;102109.00;;;7.72;100.00
36726;BME280;44936;52.086;5.150;2023-04-25T08:20:59;102127.97;;;7.66;100.00
36726;BME280;44936;52.086;5.150;2023-04-25T08:23:24;102115.50;;;7.59;100.00
36726;BME280;44936;52.086;5.150;2023-04-25T08:25:50;102134.63;;;7.58;100.00
36726;BME280;44936;52.086;5.150;2023-04-25T08:28:16;102126.09;;;7.62;100.00
36726;BME280;44936;52.086;5.150;2023-04-25T08:30:41;102130.94;;;7.77;100.00
36726;BME280;44936;52.086;5.150;2023-04-25T08:33:06;102153.56;;;8.02;100.00
36726;BME280;44936;52.086;5.150;2023-04-25T08:35:33;102142.78;;;8.17;100.00
36726;BME280;44936;52.086;5.150;2023-04-25T08:37:58;102123.38;;;8.10;100.00
36726;BME280;44936;52.086;5.150;2023-04-25T08:40:26;102129.66;;;8.15;100.00
36726;BME280;44936;52.086;5.150;2023-04-25T08:42:56;102141.72;;;8.37;100.00
36726;BME280;44936;52.086;5.150;2023-04-25T08:45:22;102135.63;;;8.37;100.00
36726;BME280;44936;52.086;5.150;2023-04-25T08:47:48;102152.56;;;8.22;100.00
36726;BME280;44936;52.086;5.150;2023-04-25T08:50:16;102160.00;;;8.12;100.00
36726;BME280;44936;52.086;5.150;2023-04-25T08:52:46;102158.13;;;8.08;100.00
36726;BME280;44936;52.086;5.150;2023-04-25T08:55:14;102146.72;;;8.04;100.00
36726;BME280;44936;52.086;5.150;2023-04-25T08:57:41;102171.72;;;7.98;100.00
36726;BME280;44936;52.086;5.150;2023-04-25T09:00:11;102183.72;;;7.92;100.00
36726;BME280;44936;52.086;5.150;2023-04-25T09:02:39;102198.69;;;7.97;100.00
36726;BME280;44936;52.086;5.150;2023-04-25T09:05:05;102181.69;;;7.84;100.00
36726;BME280;44936;52.086;5.150;2023-04-25T09:07:32;102182.00;;;7.93;100.00
36726;BME280;44936;52.086;5.150;2023-04-25T09:09:57;102130.81;;;7.98;100.00
36726;BME280;44936;52.086;5.150;2023-04-25T09:12:25;102158.97;;;8.07;100.00
36726;BME280;44936;52.086;5.150;2023-04-25T09:15:13;102118.47;;;7.94;100.00
36726;BME280;44936;52.086;5.150;2023-04-25T09:17:41;102133.47;;;8.00;100.00
36726;BME280;44936;52.086;5.150;2023-04-25T09:20:12;102059.13;;;7.90;100.00
36726;BME280;44936;52.086;5.150;2023-04-25T09:22:37;102047.50;;;8.07;100.00
36726;BME280;44936;52.086;5.150;2023-04-25T09:25:12;102042.91;;;8.27;100.00
36726;BME280;44936;52.086;5.150;2023-04-25T09:27:49;102130.41;;;8.65;100.00
36726;BME280;44936;52.086;5.150;2023-04-25T09:30:16;102086.81;;;8.93;100.00
36726;BME280;44936;52.086;5.150;2023-04-25T09:32:44;102124.34;;;9.23;100.00
36726;BME280;44936;52.086;5.150;2023-04-25T09:35:10;102119.06;;;9.53;100.00
36726;BME280;44936;52.086;5.150;2023-04-25T09:37:36;102130.31;;;9.81;100.00
36726;BME280;44936;52.086;5.150;2023-04-25T09:40:06;102054.19;;;9.76;100.00
36726;BME280;44936;52.086;5.150;2023-04-25T09:42:32;102225.13;;;9.38;100.00
36726;BME280;44936;52.086;5.150;2023-04-25T09:45:00;102235.59;;;9.38;100.00
36726;BME280;44936;52.086;5.150;2023-04-25T09:47:28;102198.28;;;9.16;100.00
36726;BME280;44936;52.086;5.150;2023-04-25T09:49:54;102190.41;;;9.45;100.00
36726;BME280;44936;52.086;5.150;2023-04-25T09:52:24;102187.00;;;9.79;100.00
36726;BME280;44936;52.086;5.150;2023-04-25T09:54:50;102151.69;;;9.98;100.00
36726;BME280;44936;52.086;5.150;2023-04-25T09:57:24;102137.78;;;9.99;100.00
36726;BME280;44936;52.086;5.150;2023-04-25T09:59:52;102174.75;;;10.09;100.00
36726;BME280;44936;52.086;5.150;2023-04-25T10:02:23;102190.56;;;10.12;100.00
36726;BME280;44936;52.086;5.150;2023-04-25T10:04:51;102209.38;;;10.29;100.00
36726;BME280;44936;52.086;5.150;2023-04-25T10:07:19;102224.69;;;10.47;100.00
36726;BME280;44936;52.086;5.150;2023-04-25T10:09:50;102173.13;;;10.47;100.00
36726;BME280;44936;52.086;5.150;2023-04-25T10:12:19;102192.69;;;10.60;100.00
36726;BME280;44936;52.086;5.150;2023-04-25T10:14:45;102219.44;;;10.82;100.00
36726;BME280;44936;52.086;5.150;2023-04-25T10:17:11;102154.69;;;10.81;100.00
36726;BME280;44936;52.086;5.150;2023-04-25T10:19:37;102097.78;;;10.78;100.00
36726;BME280;44936;52.086;5.150;2023-04-25T10:22:20;102127.72;;;10.88;100.00
36726;BME280;44936;52.086;5.150;2023-04-25T10:24:49;102150.50;;;10.89;100.00
36726;BME280;44936;52.086;5.150;2023-04-25T10:27:16;102123.56;;;10.97;100.00
36726;BME280;44936;52.086;5.150;2023-04-25T10:29:42;102109.19;;;10.80;100.00
36726;BME280;44936;52.086;5.150;2023-04-25T10:32:10;102094.31;;;10.81;100.00
36726;BME280;44936;52.086;5.150;2023-04-25T10:34:45;102126.84;;;10.87;100.00
36726;BME280;44936;52.086;5.150;2023-04-25T10:37:13;102081.63;;;11.00;100.00
36726;BME280;44936;52.086;5.150;2023-04-25T10:39:40;102060.84;;;11.13;100.00
36726;BME280;44936;52.086;5.150;2023-04-25T10:42:06;102100.72;;;10.93;100.00
36726;BME280;44936;52.086;5.150;2023-04-25T10:44:33;102107.72;;;10.94;100.00
36726;BME280;44936;52.086;5.150;2023-04-25T10:47:00;102109.25;;;10.85;100.00
36726;BME280;44936;52.086;5.150;2023-04-25T10:49:37;102157.56;;;10.93;100.00
36726;BME280;44936;52.086;5.150;2023-04-25T10:52:19;102127.13;;;10.62;100.00
36726;BME280;44936;52.086;5.150;2023-04-25T10:54:57;102133.25;;;10.62;100.00
36726;BME280;44936;52.086;5.150;2023-04-25T10:57:49;102125.81;;;10.43;100.00
36726;BME280;44936;52.086;5.150;2023-04-25T11:00:16;102144.72;;;10.66;100.00
36726;BME280;44936;52.086;5.150;2023-04-25T11:02:52;102138.16;;;10.48;100.00
36726;BME280;44936;52.086;5.150;2023-04-25T11:05:36;102072.13;;;10.29;100.00
36726;BME280;44936;52.086;5.150;2023-04-25T11:08:10;102042.91;;;10.15;100.00
36726;BME280;44936;52.086;5.150;2023-04-25T11:10:36;102095.59;;;9.89;100.00
36726;BME280;44936;52.086;5.150;2023-04-25T11:13:02;102154.03;;;9.87;100.00
36726;BME280;44936;52.086;5.150;2023-04-25T11:15:27;102126.47;;;10.01;100.00
36726;BME280;44936;52.086;5.150;2023-04-25T11:17:53;102173.03;;;10.11;100.00
36726;BME280;44936;52.086;5.150;2023-04-25T11:20:19;102157.03;;;10.01;100.00
36726;BME280;44936;52.086;5.150;2023-04-25T11:22:45;102175.28;;;9.98;100.00
36726;BME280;44936;52.086;5.150;2023-04-25T11:25:13;102161.66;;;10.09;100.00
36726;BME280;44936;52.086;5.150;2023-04-25T11:27:52;102169.53;;;10.11;100.00
36726;BME280;44936;52.086;5.150;2023-04-25T11:30:19;102161.69;;;10.11;100.00
36726;BME280;44936;52.086;5.150;2023-04-25T11:32:45;102118.03;;;9.80;100.00
36726;BME280;44936;52.086;5.150;2023-04-25T11:35:11;102154.00;;;9.85;100.00
36726;BME280;44936;52.086;5.150;2023-04-25T11:37:39;102170.03;;;9.64;100.00
36726;BME280;44936;52.086;5.150;2023-04-25T11:40:05;102175.69;;;9.48;100.00
36726;BME280;44936;52.086;5.150;2023-04-25T11:42:45;102168.84;;;9.23;100.00
36726;BME280;44936;52.086;5.150;2023-04-25T11:45:11;102184.28;;;9.14;100.00
36726;BME280;44936;52.086;5.150;2023-04-25T11:47:37;102178.84;;;9.08;100.00
36726;BME280;44936;52.086;5.150;2023-04-25T11:50:03;102191.09;;;9.38;100.00
36726;BME280;44936;52.086;5.150;2023-04-25T11:52:40;102166.00;;;9.16;100.00
36726;BME280;44936;52.086;5.150;2023-04-25T11:55:19;102216.03;;;8.98;100.00
36726;BME280;44936;52.086;5.150;2023-04-25T11:57:47;102217.34;;;8.84;100.00
36726;BME280;44936;52.086;5.150;2023-04-25T12:00:16;102222.97;;;8.69;100.00
36726;BME280;44936;52.086;5.150;2023-04-25T12:02:43;102242.41;;;8.77;100.00
36726;BME280;44936;52.086;5.150;2023-04-25T12:05:10;102247.94;;;8.86;100.00
36726;BME280;44936;52.086;5.150;2023-04-25T12:07:36;102247.25;;;8.92;100.00
36726;BME280;44936;52.086;5.150;2023-04-25T12:10:06;102252.75;;;9.01;100.00
36726;BME280;44936;52.086;5.150;2023-04-25T12:12:34;102259.63;;;9.24;100.00
36726;BME280;44936;52.086;5.150;2023-04-25T12:15:13;102256.75;;;9.45;100.00
36726;BME280;44936;52.086;5.150;2023-04-25T12:17:51;102236.41;;;9.65;100.00
36726;BME280;44936;52.086;5.150;2023-04-25T12:20:18;102228.09;;;9.80;100.00
36726;BME280;44936;52.086;5.150;2023-04-25T12:22:49;102223.94;;;9.88;100.00
36726;BME280;44936;52.086;5.150;2023-04-25T12:25:40;102202.22;;;9.90;100.00
36726;BME280;44936;52.086;5.150;2023-04-25T12:28:18;102186.75;;;10.01;100.00
36726;BME280;44936;52.086;5.150;2023-04-25T12:31:05;102187.38;;;10.24;100.00
36726;BME280;44936;52.086;5.150;2023-04-25T12:33:36;102128.31;;;10.05;100.00
36726;BME280;44936;52.086;5.150;2023-04-25T12:36:03;102132.00;;;10.12;100.00
36726;BME280;44936;52.086;5.150;2023-04-25T12:38:39;102166.91;;;10.11;100.00
36726;BME280;44936;52.086;5.150;2023-04-25T12:41:05;102193.59;;;9.96;100.00
36726;BME280;44936;52.086;5.150;2023-04-25T12:43:31;102193.31;;;9.85;100.00
36726;BME280;44936;52.086;5.150;2023-04-25T12:45:57;102201.75;;;9.74;100.00